Time;durP1;ratioP1;P1;durP2;ratioP2;P2;SDS_P1;SDS_P2;PMS_P1;PMS_P2;Temp;Humidity;BMP_temperature;BMP_pressure;BME280_temperature;BME280_humidity;BME280_pressure;Samples;Min_cycle;Max_cycle;Signal;HPM_P1;HPM_P2
2022/06/12 00:02:22;;;;;;;10.57;3.00;;;;;;;14.38;100.00;102210.09;5231972;28;20030;-71
2022/06/12 00:04:53;;;;;;;8.60;3.22;;;;;;;14.28;100.00;102191.53;5234431;28;20017;-70
2022/06/12 00:07:25;;;;;;;5.88;2.60;;;;;;;14.28;100.00;102206.50;5216502;28;20030;-69
2022/06/12 00:09:56;;;;;;;8.63;2.58;;;;;;;14.30;100.00;102202.78;5224677;28;20022;-71
2022/06/12 00:12:28;;;;;;;6.72;2.58;;;;;;;14.37;100.00;102203.16;5235675;28;20115;-71
2022/06/12 00:14:59;;;;;;;7.22;2.72;;;;;;;14.30;100.00;102202.78;5234212;28;20079;-68
2022/06/12 00:17:31;;;;;;;6.45;2.63;;;;;;;14.16;100.00;102203.03;5233495;28;20131;-69
2022/06/12 00:20:03;;;;;;;6.10;2.53;;;;;;;14.23;100.00;102200.75;5234746;28;20077;-69
2022/06/12 00:22:35;;;;;;;11.02;3.13;;;;;;;14.23;100.00;102198.13;5233394;28;20036;-70
2022/06/12 00:25:09;;;;;;;9.88;3.60;;;;;;;14.20;100.00;102196.56;5235795;28;20021;-69
2022/06/12 00:27:42;;;;;;;9.93;3.50;;;;;;;14.18;100.00;102197.66;5233650;28;20033;-69
2022/06/12 00:30:15;;;;;;;;;;;;;;;14.81;100.00;102199.63;5235798;28;20029;-69
2022/06/12 00:32:52;;;;;;;8.25;2.55;;;;;;;14.23;100.00;102193.69;5235668;28;20206;-70
2022/06/12 00:35:28;;;;;;;6.93;3.13;;;;;;;14.19;100.00;102194.06;5233176;28;20029;-68
2022/06/12 00:37:59;;;;;;;9.93;2.97;;;;;;;14.05;100.00;102201.25;5235499;28;20033;-68
2022/06/12 00:40:31;;;;;;;8.73;3.15;;;;;;;14.03;100.00;102194.41;5233352;28;20063;-71
2022/06/12 00:43:03;;;;;;;6.50;2.95;;;;;;;14.04;100.00;102196.09;5235151;28;20116;-69
2022/06/12 00:45:41;;;;;;;8.45;3.58;;;;;;;14.04;100.00;102196.09;5232293;28;20479;-70
2022/06/12 00:48:21;;;;;;;7.45;3.53;;;;;;;13.99;100.00;102198.25;5233201;28;20116;-68
2022/06/12 00:51:00;;;;;;;7.65;3.05;;;;;;;13.98;100.00;102201.81;5234996;28;20462;-68
2022/06/12 00:53:44;;;;;;;7.50;3.20;;;;;;;13.95;100.00;102191.56;5233517;28;20040;-69
2022/06/12 00:56:18;;;;;;;;;;;;;;;14.44;100.00;102203.50;5217427;28;20380;-71
2022/06/12 00:58:56;;;;;;;13.32;3.10;;;;;;;13.86;100.00;102208.88;5234701;28;20233;-69
2022/06/12 01:01:38;;;;;;;6.57;2.85;;;;;;;13.77;100.00;102205.16;5233693;28;20030;-70
2022/06/12 01:07:05;;;;;;;7.38;2.80;;;;;;;13.69;100.00;102193.56;5234698;28;20116;-71
2022/06/12 01:09:40;;;;;;;9.65;3.50;;;;;;;13.68;100.00;102194.50;5234985;28;20033;-70
2022/06/12 01:12:15;;;;;;;9.10;3.28;;;;;;;13.65;100.00;102200.84;5233135;28;20068;-68
2022/06/12 01:14:51;;;;;;;10.38;3.20;;;;;;;13.66;100.00;102196.41;5233854;28;20248;-69
2022/06/12 01:17:25;;;;;;;12.40;3.83;;;;;;;13.60;100.00;102201.19;5233588;28;20396;-69
2022/06/12 01:20:00;;;;;;;9.57;3.42;;;;;;;13.59;100.00;102196.88;5232181;28;20040;-68
2022/06/12 01:22:50;;;;;;;11.75;3.35;;;;;;;13.72;100.00;102199.44;5232815;28;20045;-69
2022/06/12 01:26:00;;;;;;;9.60;2.97;;;;;;;13.80;100.00;102202.31;5215267;28;20037;-69
2022/06/12 01:28:44;;;;;;;9.00;2.92;;;;;;;13.56;100.00;102199.75;5233943;28;20052;-69
2022/06/12 01:31:30;;;;;;;10.00;2.90;;;;;;;13.50;100.00;102199.38;5234268;28;20021;-69
2022/06/12 01:34:07;;;;;;;8.07;3.08;;;;;;;13.47;100.00;102196.97;5233612;28;20028;-69
2022/06/12 01:36:54;;;;;;;7.88;3.20;;;;;;;13.48;100.00;102196.84;5233861;28;20319;-68
2022/06/12 01:39:55;;;;;;;7.72;3.20;;;;;;;13.52;100.00;102194.81;5233757;28;20029;-69
2022/06/12 01:42:44;;;;;;;6.78;3.25;;;;;;;13.47;100.00;102187.28;5233947;28;20032;-69
2022/06/12 01:45:27;;;;;;;9.35;2.97;;;;;;;13.34;100.00;102187.38;5232743;28;20030;-68
2022/06/12 01:48:01;;;;;;;6.57;2.78;;;;;;;13.34;100.00;102181.28;5234455;28;20040;-69
2022/06/12 01:50:40;;;;;;;9.95;3.13;;;;;;;13.35;100.00;102186.41;5234476;28;20041;-69
2022/06/12 01:53:23;;;;;;;9.60;3.45;;;;;;;13.33;100.00;102184.84;5233724;28;20428;-69
2022/06/12 01:56:17;;;;;;;7.45;3.00;;;;;;;13.40;100.00;102183.44;5233534;28;20847;-69
2022/06/12 01:59:12;;;;;;;8.35;3.05;;;;;;;13.33;100.00;102184.84;5234344;28;20033;-69
2022/06/12 02:01:49;;;;;;;9.50;3.33;;;;;;;13.18;100.00;102178.91;5232922;28;20041;-69
2022/06/12 02:05:04;;;;;;;9.02;3.50;;;;;;;13.35;100.00;102178.50;5233454;28;20053;-69
2022/06/12 02:07:37;;;;;;;;;;;;;;;13.73;100.00;102176.56;5220846;28;20124;-68
2022/06/12 02:10:13;;;;;;;;;;;;;;;13.76;100.00;102184.22;5228250;28;19945;-68
2022/06/12 02:13:11;;;;;;;9.35;3.28;;;;;;;13.27;100.00;102186.16;5237475;28;19916;-68
2022/06/12 02:15:58;;;;;;;7.50;3.10;;;;;;;13.17;100.00;102182.47;5237791;28;20095;-68
2022/06/12 02:18:38;;;;;;;7.93;3.38;;;;;;;13.18;100.00;102193.84;5238278;28;20087;-69
2022/06/12 02:21:14;;;;;;;8.57;3.80;;;;;;;13.08;100.00;102196.34;5237355;28;20103;-68
2022/06/12 02:24:04;;;;;;;11.25;3.50;;;;;;;13.05;100.00;102194.75;5236199;28;20029;-68
2022/06/12 02:26:39;;;;;;;9.10;3.42;;;;;;;13.05;100.00;102199.19;5212302;28;20034;-69
2022/06/12 02:29:17;;;;;;;8.80;3.13;;;;;;;13.05;100.00;102199.19;5236816;28;20053;-69
2022/06/12 02:31:53;;;;;;;11.40;3.88;;;;;;;13.03;100.00;102185.28;5237397;28;20037;-68
2022/06/12 02:34:28;;;;;;;9.50;3.40;;;;;;;12.97;100.00;102191.84;5237920;28;20013;-69
2022/06/12 02:37:15;;;;;;;8.77;3.70;;;;;;;13.08;100.00;102180.56;5237417;28;20082;-68
2022/06/12 02:40:00;;;;;;;10.45;3.38;;;;;;;13.11;100.00;102185.59;5235967;28;20033;-69
2022/06/12 02:42:37;;;;;;;12.75;3.90;;;;;;;13.02;100.00;102179.19;5236879;28;20438;-68
2022/06/12 02:45:15;;;;;;;10.40;3.75;;;;;;;12.98;100.00;102172.47;5236908;28;20431;-68
2022/06/12 02:47:47;;;;;;;11.05;4.22;;;;;;;12.93;100.00;102174.63;5237190;28;20129;-69
2022/06/12 02:50:22;;;;;;;10.23;3.78;;;;;;;12.86;100.00;102171.59;5219955;28;20540;-68
2022/06/12 02:53:24;;;;;;;11.13;4.00;;;;;;;12.95;100.00;102169.25;5236415;28;20041;-69
2022/06/12 02:56:05;;;;;;;8.55;3.15;;;;;;;12.96;100.00;102177.03;5213070;28;20041;-68
2022/06/12 02:59:00;;;;;;;12.48;4.15;;;;;;;12.97;100.00;102172.63;5237105;28;20025;-68
2022/06/12 03:01:42;;;;;;;12.27;4.65;;;;;;;13.01;100.00;102168.81;5237141;28;20128;-68
2022/06/12 03:04:29;;;;;;;7.20;3.40;;;;;;;13.03;100.00;102162.47;5219059;28;20044;-69
2022/06/12 03:07:00;;;;;;;11.80;3.83;;;;;;;12.90;100.00;102164.31;5237236;28;20029;-68
2022/06/12 03:09:31;;;;;;;10.60;3.85;;;;;;;12.95;100.00;102170.06;5218584;28;20021;-69
2022/06/12 03:12:05;;;;;;;14.40;4.28;;;;;;;12.94;100.00;102173.66;5235198;28;20107;-69
2022/06/12 03:14:36;;;;;;;;;;;;;;;13.42;100.00;102178.91;5237220;28;20580;-73
2022/06/12 03:17:07;;;;;;;9.10;4.32;;;;;;;12.99;100.00;102189.09;5235907;28;20041;-69
2022/06/12 03:19:47;;;;;;;13.50;4.07;;;;;;;12.99;100.00;102184.69;5236705;28;20037;-68
2022/06/12 03:22:28;;;;;;;11.95;4.07;;;;;;;12.89;100.00;102189.78;5236412;28;20527;-68
2022/06/12 03:25:12;;;;;;;10.40;4.20;;;;;;;12.95;100.00;102175.34;5237617;28;20116;-68
2022/06/12 03:28:14;;;;;;;13.23;4.30;;;;;;;13.09;100.00;102176.97;5227466;28;20035;-69
2022/06/12 03:31:13;;;;;;;10.13;4.20;;;;;;;13.07;100.00;102179.72;5229466;28;20029;-69
2022/06/12 03:34:02;;;;;;;9.20;4.00;;;;;;;13.00;100.00;102182.91;5228967;28;20156;-68
2022/06/12 03:36:54;;;;;;;10.90;4.68;;;;;;;12.98;100.00;102179.53;5236497;28;20029;-68
2022/06/12 03:39:43;;;;;;;10.20;4.25;;;;;;;12.96;100.00;102184.09;5236732;28;20100;-69
2022/06/12 03:42:32;;;;;;;10.30;4.10;;;;;;;12.95;100.00;102188.50;5236407;28;20033;-67
2022/06/12 03:45:21;;;;;;;9.38;3.97;;;;;;;12.96;100.00;102192.00;5234777;28;20037;-69
2022/06/12 03:47:59;;;;;;;9.77;4.47;;;;;;;12.85;100.00;102176.97;5236005;28;20029;-69
2022/06/12 03:50:39;;;;;;;13.32;4.15;;;;;;;12.87;100.00;102189.06;5218131;28;20132;-68
2022/06/12 03:53:33;;;;;;;11.77;4.50;;;;;;;12.99;100.00;102191.72;5235965;28;20372;-69
2022/06/12 03:59:47;;;;;;;7.82;4.00;;;;;;;13.10;100.00;102192.63;5236745;28;20496;-68
2022/06/12 04:02:24;;;;;;;9.65;4.43;;;;;;;12.89;100.00;102184.53;5148658;28;20049;-68
2022/06/12 04:04:57;;;;;;;10.55;4.68;;;;;;;12.76;100.00;102183.72;5227924;28;20055;-69
2022/06/12 04:07:30;;;;;;;11.88;4.15;;;;;;;12.84;100.00;102189.31;5235498;28;20597;-69
2022/06/12 04:10:03;;;;;;;10.57;4.70;;;;;;;12.80;100.00;102181.72;5217418;28;20033;-68
2022/06/12 04:12:35;;;;;;;10.38;4.22;;;;;;;12.80;100.00;102179.94;5235554;28;20026;-69
2022/06/12 04:15:17;;;;;;;8.10;3.97;;;;;;;12.85;100.00;102193.59;5236525;28;20040;-69
2022/06/12 04:17:49;;;;;;;8.80;4.00;;;;;;;12.85;100.00;102184.88;5233704;28;20053;-69
2022/06/12 04:20:39;;;;;;;7.38;4.13;;;;;;;12.94;100.00;102185.97;5236262;28;20021;-68
2022/06/12 04:23:21;;;;;;;7.25;3.35;;;;;;;12.95;100.00;102185.84;5235838;28;20120;-68
2022/06/12 04:26:00;;;;;;;9.80;4.05;;;;;;;12.98;100.00;102183.00;5235402;28;20029;-68
2022/06/12 04:28:42;;;;;;;12.07;4.13;;;;;;;13.02;100.00;102189.72;5235530;28;20179;-68
2022/06/12 04:31:18;;;;;;;7.25;3.95;;;;;;;13.01;100.00;102197.75;5216920;28;20483;-68
2022/06/12 04:33:56;;;;;;;9.07;3.72;;;;;;;13.08;100.00;102191.06;5234306;28;20034;-68
2022/06/12 04:36:27;;;;;;;8.88;4.20;;;;;;;12.92;100.00;102191.38;5234819;28;20037;-68
2022/06/12 04:38:59;;;;;;;8.80;3.75;;;;;;;13.00;100.00;102207.44;5235791;28;20029;-69
2022/06/12 04:41:35;;;;;;;9.55;4.43;;;;;;;13.06;100.00;102209.59;5233707;28;20087;-69
2022/06/12 04:44:07;;;;;;;9.38;3.47;;;;;;;13.09;100.00;102209.38;5233966;28;20021;-67
2022/06/12 04:46:42;;;;;;;9.83;3.43;;;;;;;13.15;100.00;102203.66;5234062;28;20033;-69
2022/06/12 04:49:18;;;;;;;8.02;3.60;;;;;;;13.20;100.00;102202.47;5233982;28;20412;-69
2022/06/12 04:51:51;;;;;;;13.73;4.22;;;;;;;13.22;100.00;102203.19;5234665;28;20026;-69
2022/06/12 04:54:23;;;;;;;7.25;3.58;;;;;;;13.24;100.00;102204.78;5234951;28;20461;-69
2022/06/12 04:56:56;;;;;;;8.93;3.60;;;;;;;13.30;100.00;102206.97;5217398;28;20396;-69
2022/06/12 04:59:28;;;;;;;10.93;3.30;;;;;;;13.39;100.00;102202.81;5235307;28;20056;-69
2022/06/12 05:01:59;;;;;;;10.97;3.70;;;;;;;13.42;100.00;102199.13;5234707;28;20041;-70
2022/06/12 05:04:31;;;;;;;9.07;3.80;;;;;;;13.47;100.00;102202.22;5234691;28;20365;-69
2022/06/12 05:07:04;;;;;;;14.05;4.22;;;;;;;13.52;100.00;102200.09;5232870;28;20025;-69
2022/06/12 05:09:36;;;;;;;9.52;3.78;;;;;;;13.58;100.00;102191.72;5234919;28;20068;-70
2022/06/12 05:12:09;;;;;;;12.13;4.70;;;;;;;13.66;100.00;102193.78;5234690;28;20022;-68
2022/06/12 05:14:41;;;;;;;9.65;4.50;;;;;;;13.71;100.00;102197.72;5234777;28;20037;-69
2022/06/12 05:17:16;;;;;;;9.32;4.13;;;;;;;13.81;100.00;102196.06;5234591;28;20072;-69
2022/06/12 05:19:47;;;;;;;12.57;4.07;;;;;;;13.81;100.00;102201.34;5234678;28;20041;-69
2022/06/12 05:22:23;;;;;;;10.65;3.78;;;;;;;13.94;100.00;102200.38;5215644;28;20115;-69
2022/06/12 05:24:54;;;;;;;11.70;3.80;;;;;;;13.99;100.00;102200.88;5231721;28;20037;-69
2022/06/12 05:27:26;;;;;;;11.95;3.90;;;;;;;14.05;100.00;102197.75;5234054;28;20384;-69
2022/06/12 05:29:57;;;;;;;13.15;3.92;;;;;;;14.12;100.00;102199.78;5234465;28;20083;-69
2022/06/12 05:32:29;;;;;;;11.73;4.45;;;;;;;14.20;100.00;102191.28;5234621;28;20029;-69
2022/06/12 05:35:00;;;;;;;14.27;4.50;;;;;;;14.27;100.00;102197.75;5234927;28;20014;-69
2022/06/12 05:37:31;;;;;;;11.00;4.00;;;;;;;14.35;100.00;102197.97;5233493;28;20037;-69
2022/06/12 05:40:06;;;;;;;13.45;4.40;;;;;;;14.44;100.00;102198.25;5214311;28;20036;-69
2022/06/12 05:42:38;;;;;;;10.38;3.80;;;;;;;14.50;100.00;102197.75;5237977;28;20034;-69
2022/06/12 05:45:16;;;;;;;15.65;4.63;;;;;;;14.65;100.00;102199.16;5236032;28;20025;-68
2022/06/12 05:47:49;;;;;;;10.43;4.50;;;;;;;14.67;100.00;102199.91;5236755;28;20056;-69
2022/06/12 05:50:22;;;;;;;15.60;4.38;;;;;;;14.78;100.00;102199.03;5238200;28;20535;-69
2022/06/12 05:52:54;;;;;;;11.73;4.13;;;;;;;14.84;100.00;102209.06;5239193;28;20033;-69
2022/06/12 05:55:26;;;;;;;12.85;4.30;;;;;;;14.94;100.00;102209.19;5237979;28;20025;-69
2022/06/12 05:57:57;;;;;;;12.00;4.30;;;;;;;15.01;100.00;102215.63;5237978;28;20039;-69
2022/06/12 06:00:31;;;;;;;13.07;4.50;;;;;;;15.15;100.00;102210.03;5236430;28;20468;-70
2022/06/12 06:03:02;;;;;;;12.20;4.25;;;;;;;15.21;100.00;102206.91;5236666;28;20324;-70
2022/06/12 06:05:39;;;;;;;16.48;5.07;;;;;;;15.41;100.00;102207.03;5238641;28;20108;-69
2022/06/12 06:08:11;;;;;;;11.18;4.20;;;;;;;15.42;100.00;102208.69;5237979;28;20049;-70
2022/06/12 06:10:44;;;;;;;14.23;5.40;;;;;;;15.54;100.00;102210.34;5237555;28;20049;-69
2022/06/12 06:13:16;;;;;;;14.23;4.97;;;;;;;15.65;100.00;102207.66;5238808;28;20448;-70
2022/06/12 06:15:50;;;;;;;14.85;4.47;;;;;;;15.75;100.00;102218.28;5238572;28;20032;-69
2022/06/12 06:18:21;;;;;;;16.67;5.45;;;;;;;15.93;100.00;102223.81;5236459;28;20026;-69
2022/06/12 06:20:53;;;;;;;15.38;5.03;;;;;;;16.03;100.00;102219.41;5238330;28;20357;-69
2022/06/12 06:23:24;;;;;;;14.95;4.78;;;;;;;16.21;100.00;102217.81;5238301;28;20022;-70
2022/06/12 06:25:55;;;;;;;15.63;5.43;;;;;;;16.39;100.00;102217.16;5236852;28;20412;-70
2022/06/12 06:28:27;;;;;;;17.80;5.90;;;;;;;16.61;100.00;102211.66;5237510;28;20032;-69
2022/06/12 06:30:59;;;;;;;16.88;5.03;;;;;;;16.82;100.00;102216.88;5238409;28;20480;-70
2022/06/12 06:33:31;;;;;;;12.43;4.68;;;;;;;17.03;100.00;102217.59;5235963;28;20026;-69
2022/06/12 06:36:03;;;;;;;22.65;5.35;;;;;;;17.12;100.00;102223.88;5215488;28;20031;-70
2022/06/12 06:38:34;;;;;;;16.83;5.77;;;;;;;17.12;100.00;102220.38;5236072;28;20099;-70
2022/06/12 06:41:06;;;;;;;18.83;6.28;;;;;;;17.25;100.00;102223.59;5236975;28;20477;-70
2022/06/12 06:46:27;;;;;;;12.18;4.35;;;;;;;17.38;100.00;102226.78;5237375;28;20543;-70
2022/06/12 06:48:59;;;;;;;14.55;4.93;;;;;;;17.51;100.00;102227.31;5236297;28;20029;-71
2022/06/12 06:51:31;;;;;;;12.93;4.80;;;;;;;17.66;100.00;102229.53;5236310;28;20040;-70
2022/06/12 06:54:04;;;;;;;23.27;6.13;;;;;;;17.73;100.00;102238.59;5236127;28;20029;-71
2022/06/12 06:56:35;;;;;;;20.40;6.33;;;;;;;17.78;100.00;102233.72;5237968;28;20118;-71
2022/06/12 06:59:06;;;;;;;17.58;5.68;;;;;;;17.91;100.00;102241.34;5236667;28;20068;-71
2022/06/12 07:01:38;;;;;;;16.97;5.80;;;;;;;18.15;100.00;102235.56;5235011;28;20037;-71
2022/06/12 07:04:09;;;;;;;18.20;6.00;;;;;;;18.18;100.00;102236.13;5236639;28;20041;-71
2022/06/12 07:06:41;;;;;;;18.45;5.93;;;;;;;18.30;100.00;102244.72;5237005;28;20098;-71
2022/06/12 07:09:13;;;;;;;16.08;4.90;;;;;;;18.43;100.00;102233.75;5236137;28;20511;-70
2022/06/12 07:11:44;;;;;;;18.45;5.22;;;;;;;18.60;100.00;102230.31;5236370;28;20030;-70
2022/06/12 07:14:15;;;;;;;16.35;5.78;;;;;;;18.59;100.00;102244.53;5237648;28;20183;-71
2022/06/12 07:16:47;;;;;;;19.00;5.85;;;;;;;18.69;100.00;102237.38;5236217;28;20122;-72
2022/06/12 07:19:18;;;;;;;14.47;5.17;;;;;;;18.77;100.00;102235.81;5237426;28;20584;-72
2022/06/12 07:21:50;;;;;;;17.48;4.82;;;;;;;18.80;100.00;102240.84;5237403;28;20119;-71
2022/06/12 07:24:21;;;;;;;16.27;5.35;;;;;;;18.85;100.00;102236.72;5235690;28;20033;-72
2022/06/12 07:26:52;;;;;;;12.30;4.80;;;;;;;18.93;100.00;102236.81;5236562;28;20041;-71
2022/06/12 07:29:24;;;;;;;17.70;4.47;;;;;;;19.03;100.00;102242.06;5218080;28;20065;-71
2022/06/12 07:31:55;;;;;;;18.23;5.87;;;;;;;19.13;100.00;102244.63;5235871;28;20061;-71
2022/06/12 07:34:26;;;;;;;18.50;5.20;;;;;;;19.14;100.00;102249.81;5235165;28;20025;-71
2022/06/12 07:36:59;;;;;;;17.73;5.67;;;;;;;19.08;100.00;102241.59;5236778;28;20055;-71
2022/06/12 07:39:31;;;;;;;18.45;5.90;;;;;;;19.25;100.00;102239.94;5236787;28;20051;-71
2022/06/12 07:42:03;;;;;;;14.65;5.22;;;;;;;19.53;100.00;102249.47;5234869;28;20034;-71
2022/06/12 07:44:35;;;;;;;14.10;4.93;;;;;;;19.79;100.00;102238.03;5231799;28;20033;-72
2022/06/12 07:47:07;;;;;;;16.23;5.57;;;;;;;19.91;100.00;102242.94;5233904;28;20053;-74
2022/06/12 07:49:38;;;;;;;15.43;5.17;;;;;;;20.00;98.56;102242.97;5234955;28;20035;-70
2022/06/12 07:52:10;;;;;;;16.80;5.73;;;;;;;20.02;96.72;102241.00;5235461;28;20569;-71
2022/06/12 07:54:41;;;;;;;15.80;4.73;;;;;;;20.02;90.78;102241.81;5235970;28;20057;-72
2022/06/12 07:57:12;;;;;;;12.50;4.33;;;;;;;20.18;91.34;102236.56;5236550;28;20055;-70
2022/06/12 07:59:44;;;;;;;13.30;4.63;;;;;;;20.20;88.73;102240.94;5234870;28;20033;-72
2022/06/12 08:02:16;;;;;;;17.97;5.30;;;;;;;20.39;88.17;102246.00;5236014;28;20024;-70
2022/06/12 08:04:47;;;;;;;14.33;4.83;;;;;;;20.40;86.44;102250.31;5234659;28;20457;-70
2022/06/12 08:07:19;;;;;;;12.87;4.67;;;;;;;20.51;90.00;102236.75;5235641;28;20040;-71
2022/06/12 08:09:50;;;;;;;13.10;4.67;;;;;;;20.59;84.90;102234.09;5236407;28;20029;-70
2022/06/12 08:12:22;;;;;;;15.80;4.60;;;;;;;20.84;84.49;102242.16;5236200;28;20061;-70
2022/06/12 08:14:54;;;;;;;15.00;4.47;;;;;;;20.65;77.97;102245.94;5234018;28;20029;-71
2022/06/12 08:17:25;;;;;;;10.80;4.07;;;;;;;20.82;85.37;102241.50;5234662;28;20040;-70
2022/06/12 08:22:46;;;;;;;14.35;4.40;;;;;;;20.81;78.63;102240.66;5235696;28;20041;-70
2022/06/12 08:25:18;;;;;;;13.33;5.50;;;;;;;20.66;79.52;102236.97;5235474;28;20033;-70
2022/06/12 08:27:50;;;;;;;13.53;5.40;;;;;;;20.66;82.54;102236.97;5213620;28;20021;-70
2022/06/12 08:30:21;;;;;;;13.07;4.53;;;;;;;20.58;78.47;102243.09;5233114;28;20032;-70
2022/06/12 08:32:55;;;;;;;17.07;4.70;;;;;;;20.61;80.28;102242.78;5233225;28;20017;-70
2022/06/12 08:35:30;;;;;;;14.65;5.03;;;;;;;20.53;80.96;102241.91;5235501;28;20647;-70
2022/06/12 08:38:02;;;;;;;15.13;5.30;;;;;;;20.59;80.36;102250.09;5216556;28;20031;-70
2022/06/12 08:40:59;;;;;;;15.70;5.38;;;;;;;20.82;79.73;102246.81;5236069;28;20036;-70
2022/06/12 08:44:09;;;;;;;11.70;4.88;;;;;;;21.00;79.18;102236.03;5235843;28;20025;-71
2022/06/12 08:46:53;;;;;;;11.23;4.47;;;;;;;20.83;80.05;102237.81;5234063;28;20496;-71
2022/06/12 08:49:36;;;;;;;10.90;4.22;;;;;;;20.90;78.89;102233.50;5234578;28;20029;-71
2022/06/12 08:52:16;;;;;;;;;;;;;;;21.50;77.61;102230.56;5235931;28;20033;-73
2022/06/12 08:54:50;;;;;;;11.52;3.83;;;;;;;20.85;72.99;102233.19;5233208;28;19948;-70
2022/06/12 08:57:32;;;;;;;13.45;4.30;;;;;;;21.15;77.80;102226.38;5233869;28;20160;-71
2022/06/12 09:00:12;;;;;;;14.15;4.05;;;;;;;21.28;71.03;102228.53;5232976;28;20032;-71
2022/06/12 09:02:44;;;;;;;10.20;3.55;;;;;;;21.39;69.09;102214.91;5234149;28;20036;-70
2022/06/12 09:05:20;;;;;;;13.07;4.10;;;;;;;21.77;71.69;102221.34;5233958;28;20025;-71
2022/06/12 09:08:00;;;;;;;12.40;4.35;;;;;;;21.93;71.42;102220.44;5231851;28;20167;-70
2022/06/12 09:10:45;;;;;;;9.25;3.60;;;;;;;22.10;67.58;102207.91;5234023;28;20025;-71
2022/06/12 09:13:58;;;;;;;9.10;4.03;;;;;;;22.24;67.35;102206.38;5234217;28;20041;-71
2022/06/12 09:16:48;;;;;;;12.43;4.07;;;;;;;21.99;66.85;102209.09;5229790;28;20463;-71
2022/06/12 09:19:39;;;;;;;10.63;4.28;;;;;;;22.36;68.45;102204.97;5233604;28;20041;-71
2022/06/12 09:22:32;;;;;;;10.07;3.85;;;;;;;22.47;66.77;102207.25;5233598;28;20036;-71
2022/06/12 09:25:19;;;;;;;13.98;4.68;;;;;;;22.70;63.07;102207.28;5215155;28;20042;-70
2022/06/12 09:28:10;;;;;;;10.40;4.43;;;;;;;22.94;64.12;102208.97;5229970;28;20026;-71
2022/06/12 09:30:44;;;;;;;12.38;4.82;;;;;;;23.05;63.30;102205.88;5224715;28;20033;-71
2022/06/12 09:33:35;;;;;;;12.00;3.85;;;;;;;23.26;60.88;102204.38;5233322;28;20025;-71
2022/06/12 09:36:39;;;;;;;9.60;4.32;;;;;;;23.30;58.46;102211.03;5232227;28;20033;-71
2022/06/12 09:39:32;;;;;;;10.57;4.63;;;;;;;23.38;59.77;102202.94;5198114;28;20061;-71
2022/06/12 09:42:20;;;;;;;11.52;4.88;;;;;;;23.50;63.64;102208.66;5234266;28;20029;-71
2022/06/12 09:45:07;;;;;;;11.07;4.65;;;;;;;23.53;58.55;102203.78;5232819;28;20457;-71
2022/06/12 09:47:51;;;;;;;9.38;4.13;;;;;;;23.74;59.49;102207.59;5232093;28;20016;-71
2022/06/12 09:50:54;;;;;;;10.20;3.67;;;;;;;23.72;53.91;102204.31;5232000;28;20025;-71
2022/06/12 09:53:28;;;;;;;9.98;3.90;;;;;;;23.29;55.24;102212.84;5230860;28;20386;-71
2022/06/12 09:56:29;;;;;;;11.32;3.80;;;;;;;23.28;56.10;102205.03;5214529;28;20487;-71
2022/06/12 09:59:19;;;;;;;11.30;3.42;;;;;;;23.82;58.19;102204.00;5208423;28;20033;-71
2022/06/12 10:01:57;;;;;;;8.38;3.67;;;;;;;23.59;53.78;102206.72;5215373;28;20115;-71
2022/06/12 10:04:43;;;;;;;7.85;3.35;;;;;;;23.63;55.68;102205.34;5234638;28;20017;-71
2022/06/12 10:07:47;;;;;;;8.52;3.00;;;;;;;23.79;53.84;102197.19;5232704;28;20483;-71
2022/06/12 10:10:27;;;;;;;10.63;3.85;;;;;;;23.90;54.02;102187.84;5232938;28;20033;-70
2022/06/12 10:13:05;;;;;;;9.57;4.03;;;;;;;23.72;53.98;102196.28;5233564;28;20527;-71
2022/06/12 10:15:44;;;;;;;11.88;3.70;;;;;;;23.74;55.92;102195.06;5234912;28;20033;-71
2022/06/12 10:18:22;;;;;;;12.35;3.97;;;;;;;23.75;53.79;102196.75;5233841;28;20176;-70
2022/06/12 10:21:00;;;;;;;11.85;4.13;;;;;;;23.53;55.30;102187.75;5233012;28;20022;-70
2022/06/12 10:23:31;;;;;;;9.90;3.70;;;;;;;23.63;55.38;102192.81;5234322;28;20473;-70
2022/06/12 10:26:14;;;;;;;9.90;3.70;;;;;;;23.47;56.03;102179.59;5233489;28;20036;-70
2022/06/12 10:28:46;;;;;;;11.80;3.75;;;;;;;23.20;55.87;102189.06;5235770;28;20561;-70
2022/06/12 10:31:20;;;;;;;8.10;3.70;;;;;;;23.41;56.65;102194.56;5220523;28;20104;-71
2022/06/12 10:33:56;;;;;;;9.63;3.33;;;;;;;23.14;54.88;102189.78;5238221;28;20021;-70
2022/06/12 10:36:30;;;;;;;11.05;3.35;;;;;;;23.25;55.25;102179.47;5237336;28;20083;-71
2022/06/12 10:39:07;;;;;;;9.00;3.03;;;;;;;23.32;56.26;102182.25;5237520;28;20083;-71
2022/06/12 10:41:57;;;;;;;15.35;3.72;;;;;;;23.44;54.73;102179.97;5211176;28;20530;-70
2022/06/12 10:44:39;;;;;;;12.05;3.67;;;;;;;23.27;56.05;102182.81;5212077;28;21065;-71
2022/06/12 10:47:20;;;;;;;9.73;3.28;;;;;;;23.32;53.15;102184.94;5237142;28;20453;-71
2022/06/12 10:50:21;;;;;;;9.15;3.05;;;;;;;23.27;53.50;102181.97;5237810;28;20064;-71
2022/06/12 10:52:55;;;;;;;9.43;2.75;;;;;;;23.15;52.11;102186.94;5208663;28;20017;-70
2022/06/12 10:55:42;;;;;;;7.78;3.20;;;;;;;23.41;55.07;102183.00;5218042;28;20056;-70
2022/06/12 10:58:22;;;;;;;8.93;3.20;;;;;;;23.52;52.72;102180.75;5236678;28;20072;-71
2022/06/12 11:00:58;;;;;;;9.68;3.00;;;;;;;24.06;52.92;102176.13;5237472;28;20025;-71
2022/06/12 11:03:46;;;;;;;9.27;2.90;;;;;;;24.50;51.34;102176.88;5237035;28;20488;-71
2022/06/12 11:06:36;;;;;;;7.95;2.58;;;;;;;24.54;47.52;102163.09;5237614;28;20048;-71
2022/06/12 11:09:24;;;;;;;7.38;2.65;;;;;;;24.81;49.76;102158.81;5237729;28;20077;-70
2022/06/12 11:12:04;;;;;;;8.73;2.83;;;;;;;24.71;48.61;102178.75;5236934;28;20056;-71
2022/06/12 11:14:52;;;;;;;12.25;3.13;;;;;;;25.08;49.63;102158.03;5235773;28;20511;-71
2022/06/12 11:17:43;;;;;;;11.20;3.05;;;;;;;25.25;48.33;102166.66;5236297;28;20393;-71
2022/06/12 11:20:30;;;;;;;9.65;3.45;;;;;;;25.40;48.86;102163.88;5236792;28;20025;-71
2022/06/12 11:23:24;;;;;;;11.77;3.42;;;;;;;25.42;49.14;102159.13;5236421;28;20095;-71
2022/06/12 11:26:19;;;;;;;12.38;3.05;;;;;;;25.37;49.43;102170.44;5237465;28;20079;-71
2022/06/12 11:29:25;;;;;;;9.93;3.22;;;;;;;24.96;44.74;102168.47;5236678;28;20361;-71
2022/06/12 11:32:23;;;;;;;8.73;2.72;;;;;;;24.92;48.13;102167.16;5222421;28;20045;-71
2022/06/12 11:35:10;;;;;;;6.88;2.38;;;;;;;24.18;47.05;102162.06;5161276;28;20065;-71
2022/06/12 11:38:10;;;;;;;6.60;2.50;;;;;;;24.48;50.04;102159.34;5228468;28;20030;-70
2022/06/12 11:41:06;;;;;;;6.60;2.40;;;;;;;24.57;47.16;102162.72;5236556;28;20033;-71
2022/06/12 11:43:48;;;;;;;8.20;2.95;;;;;;;24.80;46.50;102157.16;5237052;28;20032;-71
2022/06/12 11:46:40;;;;;;;9.75;2.88;;;;;;;25.16;43.07;102151.75;5237064;28;20032;-71
2022/06/12 11:49:45;;;;;;;7.38;2.13;;;;;;;25.39;44.00;102143.44;5234109;28;20107;-71
2022/06/12 11:52:38;;;;;;;6.65;2.10;;;;;;;24.97;42.01;102143.31;5221883;28;20412;-71
2022/06/12 11:55:16;;;;;;;;;;;;;;;25.58;42.67;102133.84;5237012;28;20057;-70
2022/06/12 11:58:02;;;;;;;9.32;2.40;;;;;;;24.75;44.65;102139.81;5235926;28;19916;-71
2022/06/12 12:00:53;;;;;;;8.73;2.65;;;;;;;24.53;45.34;102143.53;5236586;28;20113;-71
2022/06/12 12:03:33;;;;;;;7.82;2.70;;;;;;;24.52;45.77;102145.38;5218599;28;20013;-71
2022/06/12 12:06:24;;;;;;;7.57;2.63;;;;;;;24.48;43.36;102136.06;5217490;28;20052;-71
2022/06/12 12:09:10;;;;;;;6.30;2.50;;;;;;;24.56;43.04;102123.56;5235188;28;20028;-71
2022/06/12 12:11:46;;;;;;;8.93;2.35;;;;;;;24.69;44.66;102129.03;5228734;28;20492;-70
2022/06/12 12:14:24;;;;;;;8.13;2.80;;;;;;;24.90;44.72;102134.38;5236210;28;20021;-71
2022/06/12 12:17:02;;;;;;;12.00;3.55;;;;;;;24.72;43.57;102132.16;5234625;28;20038;-71
2022/06/12 12:19:51;;;;;;;9.48;2.90;;;;;;;25.07;46.97;102129.53;5236179;28;20033;-71
2022/06/12 12:22:47;;;;;;;8.65;2.85;;;;;;;24.99;45.24;102132.38;5226876;28;20033;-71
2022/06/12 12:25:38;;;;;;;8.02;2.65;;;;;;;25.31;47.20;102117.59;5217182;28;20030;-71